Time;durP1;ratioP1;P1;durP2;ratioP2;P2;SDS_P1;SDS_P2;PMS_P1;PMS_P2;Temp;Humidity;BMP_temperature;BMP_pressure;BME280_temperature;BME280_humidity;BME280_pressure;Samples;Min_cycle;Max_cycle;Signal;HPM_P1;HPM_P2
2023/10/22 00:01:40;;;;;;;9.63;2.75;;;;;;;;;;6335249;28;20044;-65
2023/10/22 00:04:43;;;;;;;8.32;2.83;;;;;;;;;;6339812;28;20127;-65
2023/10/22 00:07:45;;;;;;;13.15;2.72;;;;;;;;;;6339639;28;20797;-65
2023/10/22 00:10:47;;;;;;;8.57;3.13;;;;;;;;;;6339666;28;20047;-65
2023/10/22 00:13:48;;;;;;;8.23;2.65;;;;;;;;;;6338239;28;20722;-65
2023/10/22 00:16:50;;;;;;;8.32;2.33;;;;;;;;;;6337891;28;20058;-65
2023/10/22 00:19:53;;;;;;;12.98;3.00;;;;;;;;;;6325155;28;20060;-65
2023/10/22 00:22:55;;;;;;;13.27;3.75;;;;;;;;;;6338002;27;20123;-65
2023/10/22 00:25:57;;;;;;;10.63;2.70;;;;;;;;;;6336859;28;20051;-66
2023/10/22 00:28:59;;;;;;;13.43;3.30;;;;;;;;;;6336559;28;20967;-65
2023/10/22 00:32:01;;;;;;;9.10;2.47;;;;;;;;;;6319279;28;20138;-66
2023/10/22 00:35:05;;;;;;;10.23;3.95;;;;;;;;;;6283438;28;20121;-66
2023/10/22 00:38:07;;;;;;;7.47;2.22;;;;;;;;;;6330770;28;20084;-66
2023/10/22 00:41:09;;;;;;;12.90;3.28;;;;;;;;;;6331719;28;20058;-65
2023/10/22 00:44:11;;;;;;;9.52;2.80;;;;;;;;;;6326488;28;20071;-65
2023/10/22 00:47:15;;;;;;;8.98;2.80;;;;;;;;;;6337189;28;20126;-65
2023/10/22 00:50:17;;;;;;;13.02;2.72;;;;;;;;;;6328729;28;20103;-66
2023/10/22 00:53:20;;;;;;;15.32;3.72;;;;;;;;;;6305376;28;20043;-64
2023/10/22 00:56:23;;;;;;;15.70;2.80;;;;;;;;;;6301043;28;20678;-66
2023/10/22 00:59:25;;;;;;;9.35;3.63;;;;;;;;;;6320428;28;20137;-66
2023/10/22 01:02:27;;;;;;;10.20;3.25;;;;;;;;;;6321270;28;20733;-66
2023/10/22 01:05:30;;;;;;;13.50;2.63;;;;;;;;;;6337383;28;20051;-66
2023/10/22 01:08:33;;;;;;;9.18;2.20;;;;;;;;;;6325708;28;20040;-66
2023/10/22 01:11:37;;;;;;;11.52;3.15;;;;;;;;;;6330514;28;20050;-66
2023/10/22 01:14:40;;;;;;;9.73;2.15;;;;;;;;;;6336282;28;20051;-66
2023/10/22 01:17:42;;;;;;;10.60;3.35;;;;;;;;;;6339725;27;20059;-66
2023/10/22 01:20:46;;;;;;;7.85;2.60;;;;;;;;;;6324859;28;20047;-65
2023/10/22 01:23:48;;;;;;;12.38;3.03;;;;;;;;;;6325794;28;20105;-66
2023/10/22 01:26:50;;;;;;;12.15;3.20;;;;;;;;;;6323156;28;20811;-66
2023/10/22 01:29:52;;;;;;;10.30;3.55;;;;;;;;;;6333948;28;20043;-65
2023/10/22 01:32:55;;;;;;;12.73;3.50;;;;;;;;;;6333390;27;20044;-66
2023/10/22 01:35:58;;;;;;;8.77;2.88;;;;;;;;;;6335752;28;20122;-66
2023/10/22 01:39:00;;;;;;;9.38;2.67;;;;;;;;;;6335637;28;20051;-67
2023/10/22 01:42:04;;;;;;;9.48;2.45;;;;;;;;;;6334953;28;20040;-66
2023/10/22 01:45:06;;;;;;;15.00;2.90;;;;;;;;;;6335225;28;20040;-65
2023/10/22 01:48:09;;;;;;;7.43;2.70;;;;;;;;;;6331833;28;20071;-66
2023/10/22 01:51:11;;;;;;;7.38;1.98;;;;;;;;;;6323751;28;20584;-66
2023/10/22 01:54:14;;;;;;;8.57;3.20;;;;;;;;;;6334185;28;20487;-66
2023/10/22 01:57:16;;;;;;;12.32;2.60;;;;;;;;;;6335745;28;20047;-66
2023/10/22 02:00:18;;;;;;;7.78;2.03;;;;;;;;;;6322595;28;20050;-65
2023/10/22 02:03:20;;;;;;;16.20;2.08;;;;;;;;;;6318901;28;20232;-66
2023/10/22 02:06:24;;;;;;;9.30;2.60;;;;;;;;;;6327874;28;20496;-66
2023/10/22 02:09:26;;;;;;;8.52;2.30;;;;;;;;;;6334298;28;20051;-66
2023/10/22 02:12:29;;;;;;;9.43;3.03;;;;;;;;;;6334788;28;20040;-66
2023/10/22 02:15:31;;;;;;;9.55;2.70;;;;;;;;;;6335056;28;20083;-66
2023/10/22 02:18:34;;;;;;;9.32;2.40;;;;;;;;;;6332829;28;20036;-66
2023/10/22 02:21:36;;;;;;;11.75;3.72;;;;;;;;;;6333683;28;20130;-66
2023/10/22 02:24:42;;;;;;;8.63;2.25;;;;;;;;;;6321171;28;20043;-66
2023/10/22 02:27:44;;;;;;;13.23;2.90;;;;;;;;;;6334062;28;20146;-67
2023/10/22 02:30:49;;;;;;;9.52;3.30;;;;;;;;;;6334121;28;20044;-66
2023/10/22 02:34:09;;;;;;;7.82;2.30;;;;;;;;;;6317958;28;20039;-66
2023/10/22 02:37:11;;;;;;;13.25;2.95;;;;;;;;;;6332978;28;20055;-65
2023/10/22 02:40:13;;;;;;;15.80;2.20;;;;;;;;;;6322325;28;20031;-66
2023/10/22 02:43:16;;;;;;;8.75;2.95;;;;;;;;;;6326745;28;20133;-66
2023/10/22 02:46:18;;;;;;;9.23;2.40;;;;;;;;;;6317288;28;20052;-66
2023/10/22 02:49:20;;;;;;;11.25;2.55;;;;;;;;;;6334309;28;20580;-66
2023/10/22 02:52:22;;;;;;;10.35;2.20;;;;;;;;;;6335000;28;20055;-66
2023/10/22 02:55:24;;;;;;;9.68;3.08;;;;;;;;;;6333679;28;20048;-66
2023/10/22 02:58:28;;;;;;;10.95;3.92;;;;;;;;;;6300583;28;20572;-66
2023/10/22 03:01:32;;;;;;;11.88;2.00;;;;;;;;;;6321815;28;20052;-67
2023/10/22 03:04:35;;;;;;;15.07;3.17;;;;;;;;;;6316022;28;20635;-65
2023/10/22 03:07:37;;;;;;;10.65;1.95;;;;;;;;;;6334436;27;20051;-64
2023/10/22 03:10:40;;;;;;;11.52;2.80;;;;;;;;;;6335621;27;20718;-65
2023/10/22 03:13:43;;;;;;;5.95;2.25;;;;;;;;;;6335326;27;20050;-67
2023/10/22 03:16:47;;;;;;;6.50;2.17;;;;;;;;;;6336497;28;20517;-65
2023/10/22 03:19:49;;;;;;;11.75;2.50;;;;;;;;;;6324526;28;20054;-65
2023/10/22 03:22:51;;;;;;;8.13;2.35;;;;;;;;;;6327761;28;20036;-66
2023/10/22 03:26:03;;;;;;;10.80;2.13;;;;;;;;;;6331212;28;20052;-65
2023/10/22 03:29:06;;;;;;;8.32;2.17;;;;;;;;;;6320127;28;20130;-65
2023/10/22 03:32:09;;;;;;;9.93;2.55;;;;;;;;;;6337754;28;20510;-65
2023/10/22 03:35:13;;;;;;;6.95;2.00;;;;;;;;;;6332286;28;20128;-65
2023/10/22 03:38:15;;;;;;;12.15;2.72;;;;;;;;;;6337771;28;20043;-65
2023/10/22 03:41:18;;;;;;;9.65;2.22;;;;;;;;;;6332012;28;20134;-65
2023/10/22 03:44:20;;;;;;;11.02;2.78;;;;;;;;;;6332209;28;20058;-65
2023/10/22 03:47:24;;;;;;;10.07;2.92;;;;;;;;;;6319211;28;20091;-66
2023/10/22 03:50:26;;;;;;;10.80;2.20;;;;;;;;;;6321530;28;20044;-65
2023/10/22 03:53:28;;;;;;;7.68;2.33;;;;;;;;;;6318409;28;20051;-65
2023/10/22 03:56:30;;;;;;;8.65;2.33;;;;;;;;;;6338892;27;20572;-65
2023/10/22 03:59:33;;;;;;;8.23;2.30;;;;;;;;;;6337905;28;20058;-67
2023/10/22 04:02:35;;;;;;;9.65;2.67;;;;;;;;;;6338352;27;20040;-65
2023/10/22 04:05:37;;;;;;;8.38;2.67;;;;;;;;;;6335574;28;20067;-66
2023/10/22 04:08:39;;;;;;;11.00;2.40;;;;;;;;;;6333123;28;20151;-65
2023/10/22 04:11:41;;;;;;;7.18;1.92;;;;;;;;;;6333070;28;20085;-65
2023/10/22 04:14:43;;;;;;;8.95;2.28;;;;;;;;;;6331382;28;20057;-66
2023/10/22 04:17:49;;;;;;;12.07;2.92;;;;;;;;;;6336775;28;20441;-66
2023/10/22 04:20:51;;;;;;;8.38;2.83;;;;;;;;;;6337324;28;20104;-64
2023/10/22 04:23:53;;;;;;;5.10;1.50;;;;;;;;;;6336309;28;20139;-65
2023/10/22 04:26:55;;;;;;;13.13;3.42;;;;;;;;;;6326524;27;20113;-65
2023/10/22 04:29:57;;;;;;;6.28;1.60;;;;;;;;;;6332957;28;20095;-65
2023/10/22 04:32:59;;;;;;;9.65;2.22;;;;;;;;;;6335075;28;20058;-65
2023/10/22 04:36:02;;;;;;;8.30;2.53;;;;;;;;;;6336136;28;20441;-65
2023/10/22 04:39:04;;;;;;;10.25;2.55;;;;;;;;;;6336497;28;20529;-65
2023/10/22 04:42:06;;;;;;;8.75;2.85;;;;;;;;;;6335955;28;20102;-65
2023/10/22 04:45:09;;;;;;;7.68;2.83;;;;;;;;;;6335022;28;20547;-65
2023/10/22 04:48:11;;;;;;;7.10;1.70;;;;;;;;;;6333584;28;20062;-64
2023/10/22 04:51:13;;;;;;;7.75;1.90;;;;;;;;;;6328941;28;20553;-65
2023/10/22 04:54:15;;;;;;;10.50;2.67;;;;;;;;;;6334940;28;20134;-65
2023/10/22 04:57:17;;;;;;;9.00;2.38;;;;;;;;;;6325403;28;20059;-65
2023/10/22 05:00:20;;;;;;;12.13;4.28;;;;;;;;;;6318739;28;20300;-65
2023/10/22 05:03:22;;;;;;;8.98;2.00;;;;;;;;;;6334052;28;20604;-65
2023/10/22 05:06:24;;;;;;;6.70;1.98;;;;;;;;;;6330267;28;20035;-66
2023/10/22 05:09:26;;;;;;;8.85;2.30;;;;;;;;;;6328499;28;20894;-66
2023/10/22 05:12:28;;;;;;;7.38;2.05;;;;;;;;;;6327333;28;20079;-65
2023/10/22 05:15:30;;;;;;;6.15;2.30;;;;;;;;;;6310674;28;20036;-64
2023/10/22 05:18:33;;;;;;;10.90;2.03;;;;;;;;;;6331241;28;20051;-65
2023/10/22 05:21:37;;;;;;;11.60;2.58;;;;;;;;;;6330421;28;20092;-65
2023/10/22 05:24:39;;;;;;;10.90;3.55;;;;;;;;;;6334159;28;20042;-64
2023/10/22 05:27:41;;;;;;;15.30;2.90;;;;;;;;;;6333630;28;20062;-64
2023/10/22 05:30:43;;;;;;;12.68;3.65;;;;;;;;;;6334038;28;20255;-64
2023/10/22 05:33:45;;;;;;;14.95;4.15;;;;;;;;;;6327135;28;20054;-65
2023/10/22 05:36:47;;;;;;;10.52;2.30;;;;;;;;;;6332567;28;20067;-64
2023/10/22 05:39:49;;;;;;;10.32;4.07;;;;;;;;;;6329194;28;20054;-64
2023/10/22 05:42:51;;;;;;;8.27;2.58;;;;;;;;;;6335567;28;20561;-63
2023/10/22 05:45:57;;;;;;;10.85;4.15;;;;;;;;;;6334987;28;20060;-65
2023/10/22 05:49:03;;;;;;;13.18;4.43;;;;;;;;;;6333087;28;20052;-66
2023/10/22 05:52:06;;;;;;;9.68;2.90;;;;;;;;;;6329024;28;20043;-65
2023/10/22 05:55:08;;;;;;;19.85;3.63;;;;;;;;;;6327797;28;20503;-64
2023/10/22 05:58:10;;;;;;;9.98;2.30;;;;;;;;;;6319995;28;20054;-65
2023/10/22 06:01:14;;;;;;;10.98;2.47;;;;;;;;;;6321364;28;20052;-66
2023/10/22 06:04:16;;;;;;;10.48;2.70;;;;;;;;;;6327526;28;20039;-66
2023/10/22 06:07:18;;;;;;;10.80;3.45;;;;;;;;;;6316660;28;20056;-65
2023/10/22 06:10:20;;;;;;;10.07;2.85;;;;;;;;;;6330675;28;20043;-65
2023/10/22 06:13:23;;;;;;;9.63;4.50;;;;;;;;;;6324283;28;20127;-67
2023/10/22 06:16:26;;;;;;;13.35;3.22;;;;;;;;;;6319396;28;20031;-66
2023/10/22 06:19:28;;;;;;;10.88;3.15;;;;;;;;;;6324540;28;20441;-67
2023/10/22 06:22:32;;;;;;;11.00;1.80;;;;;;;;;;6330971;28;20048;-65
2023/10/22 06:25:34;;;;;;;12.20;3.10;;;;;;;;;;6334793;28;20128;-65
2023/10/22 06:28:36;;;;;;;10.55;4.15;;;;;;;;;;6332427;28;20553;-65
2023/10/22 06:31:39;;;;;;;7.45;2.03;;;;;;;;;;6330152;28;20056;-65
2023/10/22 06:34:41;;;;;;;16.05;2.63;;;;;;;;;;6321856;28;20116;-65
2023/10/22 06:37:43;;;;;;;12.55;2.72;;;;;;;;;;6333897;28;20046;-65
2023/10/22 06:40:45;;;;;;;14.57;2.72;;;;;;;;;;6338607;28;20051;-66
2023/10/22 06:43:48;;;;;;;7.82;2.47;;;;;;;;;;6337804;28;20047;-65
2023/10/22 06:46:50;;;;;;;12.65;4.00;;;;;;;;;;6335384;28;20168;-66
2023/10/22 06:49:52;;;;;;;9.27;2.53;;;;;;;;;;6339685;28;20039;-66
2023/10/22 06:52:54;;;;;;;8.68;2.65;;;;;;;;;;6329670;28;20040;-66
2023/10/22 06:55:56;;;;;;;11.25;2.60;;;;;;;;;;6330905;28;20828;-66
2023/10/22 06:58:58;;;;;;;13.18;2.30;;;;;;;;;;6337400;28;20051;-65
2023/10/22 07:02:00;;;;;;;9.20;5.15;;;;;;;;;;6330267;28;20689;-65
2023/10/22 07:05:02;;;;;;;14.00;4.22;;;;;;;;;;6337289;27;20036;-67
2023/10/22 07:08:05;;;;;;;9.00;2.50;;;;;;;;;;6329018;28;20048;-65
2023/10/22 07:11:07;;;;;;;7.38;3.45;;;;;;;;;;6333057;27;20089;-65
2023/10/22 07:14:10;;;;;;;7.40;2.65;;;;;;;;;;6339978;28;20136;-66
2023/10/22 07:17:12;;;;;;;16.65;3.97;;;;;;;;;;6326152;27;20043;-67
2023/10/22 07:20:16;;;;;;;10.88;2.88;;;;;;;;;;6340817;28;20043;-67
2023/10/22 07:23:18;;;;;;;12.27;4.10;;;;;;;;;;6338055;28;20120;-67
2023/10/22 07:26:20;;;;;;;5.93;3.47;;;;;;;;;;6330459;28;20052;-67
2023/10/22 07:29:22;;;;;;;9.32;2.85;;;;;;;;;;6337105;28;20138;-66
2023/10/22 07:32:24;;;;;;;13.02;3.58;;;;;;;;;;6336187;28;20050;-67
2023/10/22 07:35:26;;;;;;;15.25;4.68;;;;;;;;;;6336306;28;20664;-66
2023/10/22 07:38:31;;;;;;;13.52;3.72;;;;;;;;;;6337047;28;20052;-66
2023/10/22 07:41:33;;;;;;;;;;;;;;;;;;6336280;28;20135;-66
2023/10/22 07:44:35;;;;;;;12.18;6.57;;;;;;;;;;6337994;28;19924;-66
2023/10/22 07:47:38;;;;;;;11.02;3.28;;;;;;;;;;6339392;28;20055;-66
2023/10/22 07:50:40;;;;;;;8.57;2.85;;;;;;;;;;6339381;28;20044;-65
2023/10/22 07:53:42;;;;;;;12.80;4.05;;;;;;;;;;6339465;28;20059;-67
2023/10/22 07:56:44;;;;;;;9.73;3.55;;;;;;;;;;6336880;28;20079;-66
2023/10/22 07:59:47;;;;;;;14.00;3.92;;;;;;;;;;6338950;28;20058;-66
2023/10/22 08:02:49;;;;;;;11.05;3.35;;;;;;;;;;6337371;28;20048;-67
2023/10/22 08:05:51;;;;;;;12.80;4.35;;;;;;;;;;6337778;28;20043;-66
2023/10/22 08:08:56;;;;;;;10.90;3.45;;;;;;;;;;6338146;28;20074;-67
2023/10/22 08:11:58;;;;;;;9.13;3.45;;;;;;;;;;6335460;28;20062;-67
2023/10/22 08:15:00;;;;;;;15.20;3.90;;;;;;;;;;6338269;27;20852;-67
2023/10/22 08:18:03;;;;;;;18.35;3.33;;;;;;;;;;6338249;28;20043;-67
2023/10/22 08:21:08;;;;;;;11.52;3.50;;;;;;;;;;6337581;28;20051;-67
2023/10/22 08:24:10;;;;;;;13.05;5.75;;;;;;;;;;6337901;28;20426;-67
2023/10/22 08:27:12;;;;;;;13.45;4.43;;;;;;;;;;6338175;28;20540;-67
2023/10/22 08:30:14;;;;;;;14.48;3.42;;;;;;;;;;6336729;28;20051;-67
2023/10/22 08:33:19;;;;;;;12.55;4.72;;;;;;;;;;6337631;28;20048;-67
2023/10/22 08:36:21;;;;;;;12.30;2.65;;;;;;;;;;6337467;28;20055;-67
2023/10/22 08:39:25;;;;;;;18.75;5.28;;;;;;;;;;6334729;28;20044;-65
2023/10/22 08:42:28;;;;;;;9.77;2.90;;;;;;;;;;6337825;28;20172;-65
2023/10/22 08:45:30;;;;;;;17.45;4.43;;;;;;;;;;6302064;28;20047;-66
2023/10/22 08:48:32;;;;;;;11.82;3.55;;;;;;;;;;6319813;28;20101;-66
2023/10/22 08:51:35;;;;;;;18.50;7.03;;;;;;;;;;6329638;28;20537;-66
2023/10/22 08:54:37;;;;;;;13.00;3.97;;;;;;;;;;6336650;28;20600;-67
2023/10/22 08:57:40;;;;;;;14.32;4.88;;;;;;;;;;6334410;28;20450;-66
2023/10/22 09:00:47;;;;;;;16.25;5.97;;;;;;;;;;6329350;28;20047;-66
2023/10/22 09:03:50;;;;;;;12.80;4.10;;;;;;;;;;6330691;28;20048;-65
2023/10/22 09:06:53;;;;;;;13.50;5.22;;;;;;;;;;6331344;28;20558;-65
2023/10/22 09:09:55;;;;;;;12.90;6.10;;;;;;;;;;6334874;28;20577;-66
2023/10/22 09:13:06;;;;;;;11.13;3.40;;;;;;;;;;6335967;28;20047;-66
2023/10/22 09:16:09;;;;;;;15.13;5.35;;;;;;;;;;6332509;28;20043;-66
2023/10/22 09:19:12;;;;;;;10.60;6.13;;;;;;;;;;6337105;28;20120;-66
2023/10/22 09:22:25;;;;;;;11.13;5.88;;;;;;;;;;6336178;28;20060;-66
2023/10/22 09:25:33;;;;;;;12.18;5.32;;;;;;;;;;6329769;28;20039;-66
2023/10/22 09:28:36;;;;;;;15.82;5.70;;;;;;;;;;6328630;28;20877;-66
2023/10/22 09:31:38;;;;;;;13.25;4.20;;;;;;;;;;6335789;28;20058;-66
2023/10/22 09:34:40;;;;;;;16.10;4.63;;;;;;;;;;6332082;28;20043;-66
2023/10/22 09:37:54;;;;;;;13.35;4.28;;;;;;;;;;6331799;28;20040;-67
2023/10/22 09:40:59;;;;;;;13.70;5.53;;;;;;;;;;6335632;28;20047;-67
2023/10/22 09:44:02;;;;;;;14.82;3.15;;;;;;;;;;6336049;28;20084;-66
2023/10/22 09:47:06;;;;;;;13.90;2.92;;;;;;;;;;6334425;28;20039;-66
2023/10/22 09:50:12;;;;;;;9.38;4.47;;;;;;;;;;6335595;28;20059;-66
2023/10/22 09:53:16;;;;;;;8.85;4.00;;;;;;;;;;6326026;28;20047;-67
2023/10/22 09:56:20;;;;;;;10.50;4.28;;;;;;;;;;6334935;28;20056;-67
2023/10/22 09:59:23;;;;;;;17.60;4.55;;;;;;;;;;6336074;28;20076;-67
2023/10/22 10:02:26;;;;;;;18.52;4.95;;;;;;;;;;6334415;28;20573;-66
2023/10/22 10:05:28;;;;;;;17.30;5.05;;;;;;;;;;6335600;28;20532;-67
2023/10/22 10:08:30;;;;;;;14.27;4.40;;;;;;;;;;6319805;28;20052;-67
2023/10/22 10:11:32;;;;;;;23.15;5.05;;;;;;;;;;6333232;28;20051;-67
2023/10/22 10:14:50;;;;;;;15.38;3.20;;;;;;;;;;6330053;28;20048;-65
2023/10/22 10:17:52;;;;;;;17.10;4.32;;;;;;;;;;6338086;28;20068;-66
2023/10/22 10:20:54;;;;;;;14.82;3.95;;;;;;;;;;6340584;28;20047;-66
2023/10/22 10:24:17;;;;;;;12.00;2.00;;;;;;;;;;6340350;28;20040;-66
2023/10/22 10:27:19;;;;;;;12.85;3.10;;;;;;;;;;6335965;28;20044;-67
2023/10/22 10:30:22;;;;;;;17.00;3.75;;;;;;;;;;6340790;28;20056;-67
2023/10/22 10:34:02;;;;;;;11.65;3.00;;;;;;;;;;6339518;28;20199;-67
2023/10/22 10:37:10;;;;;;;12.10;3.40;;;;;;;;;;6339301;28;20054;-67
2023/10/22 10:40:44;;;;;;;15.35;4.90;;;;;;;;;;6340378;28;20039;-67
2023/10/22 10:44:06;;;;;;;21.65;3.15;;;;;;;;;;6338857;28;20051;-67
2023/10/22 10:47:20;;;;;;;12.23;4.25;;;;;;;;;;6339874;28;20039;-66
2023/10/22 10:50:22;;;;;;;8.73;3.38;;;;;;;;;;6340576;28;20039;-67
2023/10/22 10:53:24;;;;;;;18.30;2.30;;;;;;;;;;6339532;28;20592;-67
2023/10/22 10:56:55;;;;;;;10.30;3.17;;;;;;;;;;6336456;28;20036;-68
2023/10/22 10:59:57;;;;;;;22.98;4.20;;;;;;;;;;6329683;28;20043;-67
2023/10/22 11:03:04;;;;;;;18.08;4.07;;;;;;;;;;6339704;28;20047;-66
2023/10/22 11:06:11;;;;;;;10.48;2.03;;;;;;;;;;6335405;27;20838;-66
2023/10/22 11:09:13;;;;;;;10.50;2.92;;;;;;;;;;6336921;28;20176;-66
2023/10/22 11:12:15;;;;;;;12.95;4.20;;;;;;;;;;6330051;28;20526;-66
2023/10/22 11:15:17;;;;;;;22.30;3.42;;;;;;;;;;6327598;28;20051;-66
2023/10/22 11:18:19;;;;;;;18.13;3.35;;;;;;;;;;6339412;28;20043;-66
2023/10/22 11:21:21;;;;;;;16.70;3.42;;;;;;;;;;6338815;28;20048;-66
2023/10/22 11:24:29;;;;;;;19.33;4.70;;;;;;;;;;6338745;28;20136;-66
2023/10/22 11:27:33;;;;;;;17.88;4.00;;;;;;;;;;6319635;28;20461;-66
2023/10/22 11:30:37;;;;;;;20.25;4.45;;;;;;;;;;6326167;28;20050;-66
2023/10/22 11:33:39;;;;;;;19.45;3.70;;;;;;;;;;6338637;28;20043;-66
2023/10/22 11:36:41;;;;;;;19.02;4.10;;;;;;;;;;6325408;28;20051;-66
2023/10/22 11:39:44;;;;;;;18.58;4.45;;;;;;;;;;6331759;28;20084;-66
2023/10/22 11:42:46;;;;;;;16.08;4.30;;;;;;;;;;6338210;28;20039;-66
2023/10/22 11:45:53;;;;;;;16.50;3.15;;;;;;;;;;6338465;28;20922;-66
2023/10/22 11:48:59;;;;;;;17.70;4.38;;;;;;;;;;6339013;28;20039;-66
2023/10/22 11:52:01;;;;;;;18.58;4.25;;;;;;;;;;6339953;28;20058;-67
2023/10/22 11:55:07;;;;;;;21.98;4.20;;;;;;;;;;6330729;28;20051;-66
2023/10/22 11:58:25;;;;;;;17.23;5.93;;;;;;;;;;6327336;28;20051;-65
2023/10/22 12:01:28;;;;;;;15.20;4.25;;;;;;;;;;6325127;28;20047;-65
2023/10/22 12:04:30;;;;;;;13.13;3.10;;;;;;;;;;6325827;28;20110;-64
2023/10/22 12:07:32;;;;;;;16.70;4.80;;;;;;;;;;6334513;28;20063;-64
2023/10/22 12:10:34;;;;;;;20.67;4.28;;;;;;;;;;6333240;28;20059;-64
2023/10/22 12:13:36;;;;;;;16.70;3.70;;;;;;;;;;6338430;27;20046;-63
2023/10/22 12:16:38;;;;;;;25.65;5.00;;;;;;;;;;6345999;27;20043;-64
2023/10/22 12:19:40;;;;;;;15.55;3.85;;;;;;;;;;6336517;28;20063;-64
2023/10/22 12:22:42;;;;;;;20.30;2.90;;;;;;;;;;6334369;27;20051;-65
2023/10/22 12:25:44;;;;;;;19.65;3.92;;;;;;;;;;6337788;27;20142;-64
2023/10/22 12:28:46;;;;;;;16.10;4.68;;;;;;;;;;6340766;27;20870;-65
2023/10/22 12:31:48;;;;;;;21.70;5.28;;;;;;;;;;6334038;28;20040;-63
2023/10/22 12:34:50;;;;;;;14.98;4.68;;;;;;;;;;6333205;27;20054;-64
2023/10/22 12:37:52;;;;;;;25.02;4.53;;;;;;;;;;6338609;27;20434;-64
2023/10/22 12:40:54;;;;;;;15.07;4.53;;;;;;;;;;6336094;27;20047;-64
2023/10/22 12:43:56;;;;;;;14.93;3.58;;;;;;;;;;6333329;27;20039;-64
2023/10/22 12:46:58;;;;;;;16.90;6.35;;;;;;;;;;6335812;27;20048;-64
2023/10/22 12:50:00;;;;;;;23.63;4.55;;;;;;;;;;6336683;28;20595;-64
2023/10/22 12:53:04;;;;;;;18.63;5.15;;;;;;;;;;6333716;27;20044;-64
2023/10/22 12:56:07;;;;;;;20.20;5.07;;;;;;;;;;6330062;28;20044;-64
2023/10/22 12:59:09;;;;;;;21.42;4.97;;;;;;;;;;6334355;28;20048;-64
2023/10/22 13:02:11;;;;;;;23.00;4.07;;;;;;;;;;6337683;27;20043;-64
2023/10/22 13:05:13;;;;;;;18.90;4.82;;;;;;;;;;6335268;28;20120;-64
2023/10/22 13:08:15;;;;;;;18.33;3.92;;;;;;;;;;6327677;27;20040;-64
2023/10/22 13:11:20;;;;;;;22.02;6.10;;;;;;;;;;6315839;27;20051;-64
2023/10/22 13:14:22;;;;;;;27.90;6.82;;;;;;;;;;6327678;28;20918;-64
2023/10/22 13:17:24;;;;;;;25.98;6.18;;;;;;;;;;6329723;28;20044;-64
2023/10/22 13:20:27;;;;;;;15.32;5.07;;;;;;;;;;6326835;28;20484;-63
2023/10/22 13:23:29;;;;;;;29.75;6.30;;;;;;;;;;6335520;28;20051;-63
2023/10/22 13:26:31;;;;;;;25.13;7.53;;;;;;;;;;6334808;27;20130;-63
2023/10/22 13:29:33;;;;;;;26.80;5.28;;;;;;;;;;6333654;27;20048;-64
2023/10/22 13:32:35;;;;;;;29.65;11.13;;;;;;;;;;6327012;28;20066;-64
2023/10/22 13:35:37;;;;;;;23.35;4.93;;;;;;;;;;6325303;28;20098;-64
2023/10/22 13:38:39;;;;;;;20.70;4.85;;;;;;;;;;6340771;27;20046;-66
2023/10/22 13:41:42;;;;;;;30.10;12.55;;;;;;;;;;6333179;27;20039;-66
2023/10/22 13:44:46;;;;;;;14.80;6.07;;;;;;;;;;6313807;28;20043;-65
2023/10/22 13:47:49;;;;;;;18.90;4.15;;;;;;;;;;6318511;28;20055;-66
2023/10/22 13:50:51;;;;;;;13.15;4.50;;;;;;;;;;6327923;28;20044;-66
2023/10/22 13:53:53;;;;;;;19.60;3.53;;;;;;;;;;6307285;28;20866;-66
2023/10/22 13:56:55;;;;;;;11.73;2.95;;;;;;;;;;6328739;28;20442;-66
2023/10/22 13:59:57;;;;;;;17.83;3.80;;;;;;;;;;6309728;28;20055;-66
2023/10/22 14:02:59;;;;;;;16.50;5.80;;;;;;;;;;6333873;28;20103;-66
2023/10/22 14:06:02;;;;;;;21.05;6.13;;;;;;;;;;6333943;28;20047;-66
2023/10/22 14:09:04;;;;;;;16.77;3.70;;;;;;;;;;6322749;28;20537;-67
2023/10/22 14:12:06;;;;;;;19.88;5.70;;;;;;;;;;6323990;28;20039;-66
2023/10/22 14:15:09;;;;;;;16.15;3.22;;;;;;;;;;6331315;28;20067;-66
2023/10/22 14:18:11;;;;;;;16.67;6.00;;;;;;;;;;6334769;28;20064;-66
2023/10/22 14:21:14;;;;;;;17.23;3.97;;;;;;;;;;6326861;28;20443;-67
2023/10/22 14:24:17;;;;;;;20.25;3.63;;;;;;;;;;6328295;28;20117;-67
2023/10/22 14:27:19;;;;;;;21.92;5.72;;;;;;;;;;6312718;28;20521;-66
2023/10/22 14:30:21;;;;;;;16.55;5.30;;;;;;;;;;6321669;28;20055;-67
2023/10/22 14:33:23;;;;;;;21.35;5.20;;;;;;;;;;6322496;28;20137;-66
2023/10/22 14:36:26;;;;;;;17.42;3.83;;;;;;;;;;6332822;28;20051;-66
2023/10/22 14:39:29;;;;;;;27.30;5.10;;;;;;;;;;6333953;28;20101;-66
2023/10/22 14:42:31;;;;;;;16.83;4.53;;;;;;;;;;6332494;28;20100;-67
2023/10/22 14:45:33;;;;;;;25.35;4.47;;;;;;;;;;6330455;28;20819;-67
2023/10/22 14:48:35;;;;;;;21.83;4.45;;;;;;;;;;6318499;28;20043;-65
2023/10/22 14:51:37;;;;;;;19.70;4.38;;;;;;;;;;6328457;28;20054;-66
2023/10/22 14:54:39;;;;;;;30.83;4.97;;;;;;;;;;6332962;28;20119;-66
2023/10/22 14:57:41;;;;;;;22.00;4.40;;;;;;;;;;6332597;28;20701;-65
2023/10/22 15:00:43;;;;;;;30.98;9.50;;;;;;;;;;6336249;28;20055;-64
2023/10/22 15:03:45;;;;;;;24.27;7.03;;;;;;;;;;6328286;28;20051;-66
2023/10/22 15:06:48;;;;;;;20.52;5.80;;;;;;;;;;6339193;28;20803;-66
2023/10/22 15:09:50;;;;;;;17.63;6.93;;;;;;;;;;6336238;28;20053;-66
2023/10/22 15:12:52;;;;;;;17.27;4.25;;;;;;;;;;6336272;28;20193;-67
2023/10/22 15:15:54;;;;;;;17.55;5.97;;;;;;;;;;6338245;28;20156;-67
2023/10/22 15:18:56;;;;;;;22.50;6.35;;;;;;;;;;6321711;28;20062;-66
2023/10/22 15:21:58;;;;;;;17.95;4.97;;;;;;;;;;6338303;28;20605;-66
2023/10/22 15:25:00;;;;;;;25.73;5.55;;;;;;;;;;6323543;28;20069;-66
2023/10/22 15:28:03;;;;;;;19.70;5.88;;;;;;;;;;6333040;28;20522;-66
2023/10/22 15:31:05;;;;;;;30.67;4.35;;;;;;;;;;6332754;28;20051;-66
2023/10/22 15:34:07;;;;;;;23.70;4.68;;;;;;;;;;6317863;28;20043;-66
2023/10/22 15:37:09;;;;;;;25.77;7.97;;;;;;;;;;6327201;28;20035;-67
2023/10/22 15:40:12;;;;;;;30.50;7.50;;;;;;;;;;6329894;28;20747;-67
2023/10/22 15:43:14;;;;;;;22.08;6.22;;;;;;;;;;6338839;28;20048;-67
2023/10/22 15:46:21;;;;;;;22.35;6.53;;;;;;;;;;6338019;28;20052;-66
2023/10/22 15:49:23;;;;;;;24.10;5.57;;;;;;;;;;6338006;28;20793;-67
2023/10/22 15:52:25;;;;;;;23.23;8.70;;;;;;;;;;6335028;28;20051;-67
2023/10/22 15:55:28;;;;;;;25.00;6.05;;;;;;;;;;6336751;28;20043;-67
2023/10/22 15:58:30;;;;;;;24.90;7.05;;;;;;;;;;6335061;28;20557;-67
2023/10/22 16:01:32;;;;;;;20.75;5.70;;;;;;;;;;6335537;28;20591;-67
2023/10/22 16:04:34;;;;;;;35.95;17.17;;;;;;;;;;6335020;28;20135;-66
2023/10/22 16:07:37;;;;;;;26.13;7.00;;;;;;;;;;6334936;27;20040;-67
2023/10/22 16:10:39;;;;;;;34.03;9.93;;;;;;;;;;6337727;28;20070;-67
2023/10/22 16:13:42;;;;;;;29.52;6.53;;;;;;;;;;6337947;28;20052;-66
2023/10/22 16:16:44;;;;;;;22.45;5.75;;;;;;;;;;6337146;28;20043;-67
2023/10/22 16:19:46;;;;;;;22.02;6.68;;;;;;;;;;6337516;28;20039;-66
2023/10/22 16:22:48;;;;;;;31.40;6.65;;;;;;;;;;6333878;28;20541;-67
2023/10/22 16:25:50;;;;;;;20.05;6.07;;;;;;;;;;6338048;28;20055;-67
2023/10/22 16:28:55;;;;;;;27.63;7.55;;;;;;;;;;6339021;28;20518;-67
2023/10/22 16:31:59;;;;;;;20.60;5.00;;;;;;;;;;6338271;28;20142;-66
2023/10/22 16:35:01;;;;;;;25.63;5.38;;;;;;;;;;6327563;28;20051;-67
2023/10/22 16:38:04;;;;;;;24.92;6.43;;;;;;;;;;6330865;28;20043;-67
2023/10/22 16:41:09;;;;;;;26.20;6.30;;;;;;;;;;6337245;28;20047;-66
2023/10/22 16:44:11;;;;;;;20.17;4.90;;;;;;;;;;6336354;28;20047;-67
2023/10/22 16:47:13;;;;;;;22.08;5.82;;;;;;;;;;6305589;27;20098;-67
2023/10/22 16:50:15;;;;;;;23.17;7.68;;;;;;;;;;6307888;28;20051;-67
2023/10/22 16:53:17;;;;;;;31.13;9.95;;;;;;;;;;6334830;27;20039;-66
2023/10/22 16:56:19;;;;;;;21.27;6.95;;;;;;;;;;6332654;27;20111;-67
2023/10/22 16:59:21;;;;;;;24.30;6.60;;;;;;;;;;6329996;27;20129;-68
2023/10/22 17:02:23;;;;;;;22.02;5.68;;;;;;;;;;6332513;28;20071;-66
2023/10/22 17:05:25;;;;;;;28.42;8.82;;;;;;;;;;6332250;27;20062;-67
2023/10/22 17:08:28;;;;;;;27.08;6.75;;;;;;;;;;6332855;27;20127;-68
2023/10/22 17:11:30;;;;;;;19.35;8.15;;;;;;;;;;6334036;27;20043;-67
2023/10/22 17:14:32;;;;;;;28.05;7.63;;;;;;;;;;6334213;27;20071;-67
2023/10/22 17:17:53;;;;;;;19.65;5.18;;;;;;;;;;6330592;27;20047;-68
2023/10/22 17:20:55;;;;;;;25.52;6.75;;;;;;;;;;6327881;28;20047;-66
2023/10/22 17:23:57;;;;;;;22.55;7.38;;;;;;;;;;6340505;27;20047;-66
2023/10/22 17:26:59;;;;;;;23.30;4.88;;;;;;;;;;6311352;28;20044;-66
2023/10/22 17:30:02;;;;;;;22.08;5.03;;;;;;;;;;6334322;27;20757;-66
2023/10/22 17:33:05;;;;;;;23.40;7.35;;;;;;;;;;6312663;28;20567;-67
2023/10/22 17:36:07;;;;;;;21.95;7.60;;;;;;;;;;6336226;27;20042;-66
2023/10/22 17:39:09;;;;;;;22.67;5.07;;;;;;;;;;6335910;27;20043;-65
2023/10/22 17:42:11;;;;;;;25.42;6.97;;;;;;;;;;6334048;27;20135;-67
2023/10/22 17:45:13;;;;;;;21.88;5.03;;;;;;;;;;6332350;27;20136;-68
2023/10/22 17:48:15;;;;;;;23.30;4.40;;;;;;;;;;6327099;28;20602;-67
2023/10/22 17:51:18;;;;;;;25.80;4.43;;;;;;;;;;6327762;27;20061;-67
2023/10/22 17:54:20;;;;;;;18.52;4.13;;;;;;;;;;6328331;28;20051;-66
2023/10/22 17:57:22;;;;;;;19.05;5.95;;;;;;;;;;6330809;28;20043;-66
2023/10/22 18:00:24;;;;;;;19.88;5.25;;;;;;;;;;6328877;28;20104;-66
2023/10/22 18:03:26;;;;;;;28.58;5.07;;;;;;;;;;6329273;28;20044;-66
2023/10/22 18:06:29;;;;;;;19.20;4.28;;;;;;;;;;6327233;28;20054;-67